TimeCEST,TemperatureF,Dew PointF,Humidity,Sea Level PressureIn,VisibilityMPH,Wind Direction,Wind SpeedMPH,Gust SpeedMPH,PrecipitationIn,Events,Conditions,WindDirDegrees,DateUTC
12:00 AM,46,46,97,29.94,0,North,6.7,,,Fog,Fog,10,2012-10-25 22:00:00
1:00 AM,46,46,99,29.92,0,North,4.5,,,Fog,Fog,0,2012-10-25 23:00:00
2:00 AM,46,46,97,29.91,0,North,6.7,,,Fog,Fog,0,2012-10-26 00:00:00
3:00 AM,45,44,97,29.90,1,North,6.7,,,Fog,Fog,10,2012-10-26 01:00:00
5:00 AM,45,44,97,29.88,0,ENE,4.5,,,Fog,Fog,70,2012-10-26 03:00:00
6:00 AM,45,45,98,29.87,0,ENE,2.2,,,Fog,Partial Fog,60,2012-10-26 04:00:00
7:00 AM,45,44,96,29.86,1,North,4.5,,,Fog,Partial Fog,350,2012-10-26 05:00:00
7:50 AM,44.6,44.6,100,29.83,0.4,North,2.3,-,N/A,Fog,Fog,10,2012-10-26 05:50:00
8:00 AM,45,44,97,29.85,1,North,2.2,,,Fog,Light Fog,0,2012-10-26 06:00:00
8:20 AM,44.6,44.6,100,29.83,0.2,North,2.3,-,N/A,Fog,Fog,10,2012-10-26 06:20:00
8:50 AM,44.6,44.6,100,29.80,0.4,NNE,2.3,-,N/A,Fog,Fog,30,2012-10-26 06:50:00
9:00 AM,45,44,97,29.84,0,North,2.2,,,Fog,Partial Fog,10,2012-10-26 07:00:00
9:20 AM,44.6,44.6,100,29.80,1.2,Variable,2.3,-,N/A,Fog,Fog,0,2012-10-26 07:20:00
9:50 AM,46.4,46.4,100,29.80,1.6,North,3.5,-,N/A,,Mostly Cloudy,360,2012-10-26 07:50:00
10:00 AM,46,46,99,29.83,2,NNE,4.5,,,Fog,Light Fog,20,2012-10-26 08:00:00
10:20 AM,46.4,46.4,100,29.80,1.6,North,2.3,-,N/A,,Mostly Cloudy,10,2012-10-26 08:20:00
10:50 AM,46.4,46.4,100,29.77,-9999.0,North,3.5,-,N/A,,Mostly Cloudy,360,2012-10-26 08:50:00
11:00 AM,47,46,95,29.81,2,North,4.5,,,Fog,Light Fog,10,2012-10-26 09:00:00
11:50 AM,48.2,48.2,100,29.74,2.5,North,4.6,-,N/A,,Mostly Cloudy,10,2012-10-26 09:50:00
12:20 PM,48.2,48.2,100,29.74,3.1,North,3.5,-,N/A,,Mostly Cloudy,10,2012-10-26 10:20:00
12:50 PM,50.0,50.0,100,29.71,3.1,North,3.5,-,N/A,,Mostly Cloudy,360,2012-10-26 10:50:00
1:00 PM,49,47,90,29.74,4,North,4.5,,,,Mist,0,2012-10-26 11:00:00
1:20 PM,50.0,50.0,100,29.71,3.7,NNW,3.5,-,N/A,,Mostly Cloudy,340,2012-10-26 11:20:00
1:50 PM,50.0,50.0,100,29.68,3.7,NNW,2.3,-,N/A,,Mostly Cloudy,340,2012-10-26 11:50:00
2:20 PM,51.8,48.2,88,29.68,3.7,North,3.5,-,N/A,,Mostly Cloudy,360,2012-10-26 12:20:00
2:50 PM,51.8,48.2,88,29.65,3.7,North,8.1,-,N/A,,Mostly Cloudy,10,2012-10-26 12:50:00
3:00 PM,52,48,82,29.66,6,NE,4.5,,,,Mostly Cloudy,40,2012-10-26 13:00:00
3:20 PM,51.8,48.2,88,29.62,5.6,NNE,9.2,-,N/A,,Mostly Cloudy,20,2012-10-26 13:20:00
4:00 PM,52,48,80,29.64,7,NNE,6.7,,,,Overcast,30,2012-10-26 14:00:00
4:20 PM,51.8,46.4,82,29.59,4.3,NNE,9.2,-,N/A,,Overcast,20,2012-10-26 14:20:00
4:50 PM,50.0,46.4,87,29.59,5.0,NNE,6.9,-,N/A,,Mostly Cloudy,20,2012-10-26 14:50:00
5:20 PM,50.0,46.4,87,29.56,6.2,NNE,6.9,-,N/A,,Mostly Cloudy,30,2012-10-26 15:20:00
5:50 PM,50.0,46.4,87,29.56,6.2,NNE,8.1,-,N/A,,Overcast,30,2012-10-26 15:50:00
6:00 PM,50,46,80,29.58,7,NE,6.7,,,,Overcast,40,2012-10-26 16:00:00
6:20 PM,50.0,46.4,87,29.53,6.2,NNE,5.8,-,N/A,,Mostly Cloudy,30,2012-10-26 16:20:00
6:50 PM,48.2,46.4,93,29.53,6.2,NNE,6.9,-,N/A,,Mostly Cloudy,20,2012-10-26 16:50:00
8:00 PM,48,45,84,29.55,11,NNE,6.7,,,,Overcast,30,2012-10-26 18:00:00
9:00 PM,47,44,86,29.53,8,NNE,6.7,,,Rain,Light Rain,30,2012-10-26 19:00:00
10:00 PM,46,44,89,29.51,4,NNW,4.5,,,Rain,Rain,340,2012-10-26 20:00:00
11:00 PM,45,43,92,29.48,3,North,6.7,,,Rain,Heavy Rain,0,2012-10-26 21:00:00